sensor_id;sensor_type;location;lat;lon;timestamp;temperature;humidity
35668;DHT22;22158;59.280;17.806;2024-02-15T00:02:04;2.00;99.90
35668;DHT22;22158;59.280;17.806;2024-02-15T00:04:30;2.00;99.90
35668;DHT22;22158;59.280;17.806;2024-02-15T00:06:57;2.00;99.90
35668;DHT22;22158;59.280;17.806;2024-02-15T00:09:23;1.90;99.90
35668;DHT22;22158;59.280;17.806;2024-02-15T00:11:48;1.90;99.90
35668;DHT22;22158;59.280;17.806;2024-02-15T00:14:14;1.90;99.90
35668;DHT22;22158;59.280;17.806;2024-02-15T00:16:40;1.90;99.90
35668;DHT22;22158;59.280;17.806;2024-02-15T00:19:11;1.90;99.90
35668;DHT22;22158;59.280;17.806;2024-02-15T00:21:43;1.90;99.90
35668;DHT22;22158;59.280;17.806;2024-02-15T00:24:09;1.90;99.90
35668;DHT22;22158;59.280;17.806;2024-02-15T00:26:35;1.90;99.90
35668;DHT22;22158;59.280;17.806;2024-02-15T00:29:01;1.90;99.90
35668;DHT22;22158;59.280;17.806;2024-02-15T00:31:27;1.90;99.90
35668;DHT22;22158;59.280;17.806;2024-02-15T00:33:52;1.90;99.90
35668;DHT22;22158;59.280;17.806;2024-02-15T00:36:19;1.90;99.90
35668;DHT22;22158;59.280;17.806;2024-02-15T00:38:45;1.90;99.90
35668;DHT22;22158;59.280;17.806;2024-02-15T00:41:10;1.90;99.90
35668;DHT22;22158;59.280;17.806;2024-02-15T00:43:36;2.00;99.90
35668;DHT22;22158;59.280;17.806;2024-02-15T00:46:02;2.00;99.90
35668;DHT22;22158;59.280;17.806;2024-02-15T00:48:28;2.00;99.90
35668;DHT22;22158;59.280;17.806;2024-02-15T00:50:56;2.00;99.90
35668;DHT22;22158;59.280;17.806;2024-02-15T00:53:22;1.90;99.90
35668;DHT22;22158;59.280;17.806;2024-02-15T00:55:47;1.90;99.90
35668;DHT22;22158;59.280;17.806;2024-02-15T00:58:13;1.90;99.90
35668;DHT22;22158;59.280;17.806;2024-02-15T01:00:39;1.90;99.90
35668;DHT22;22158;59.280;17.806;2024-02-15T01:03:04;1.90;99.90
35668;DHT22;22158;59.280;17.806;2024-02-15T01:05:30;2.00;99.90
35668;DHT22;22158;59.280;17.806;2024-02-15T01:07:56;2.00;99.90
35668;DHT22;22158;59.280;17.806;2024-02-15T01:10:22;2.00;99.90
35668;DHT22;22158;59.280;17.806;2024-02-15T01:12:50;2.00;99.90
35668;DHT22;22158;59.280;17.806;2024-02-15T01:15:15;2.00;99.90
35668;DHT22;22158;59.280;17.806;2024-02-15T01:17:44;2.00;99.90
35668;DHT22;22158;59.280;17.806;2024-02-15T01:20:10;2.00;99.90
35668;DHT22;22158;59.280;17.806;2024-02-15T01:22:36;2.00;99.90
35668;DHT22;22158;59.280;17.806;2024-02-15T01:25:02;2.00;99.90
35668;DHT22;22158;59.280;17.806;2024-02-15T01:27:28;1.90;99.90
35668;DHT22;22158;59.280;17.806;2024-02-15T01:29:56;1.90;99.90
35668;DHT22;22158;59.280;17.806;2024-02-15T01:32:22;1.90;99.90
35668;DHT22;22158;59.280;17.806;2024-02-15T01:34:47;1.90;99.90
35668;DHT22;22158;59.280;17.806;2024-02-15T01:37:13;1.90;99.90
35668;DHT22;22158;59.280;17.806;2024-02-15T01:39:39;1.90;99.90
35668;DHT22;22158;59.280;17.806;2024-02-15T01:42:05;1.90;99.90
35668;DHT22;22158;59.280;17.806;2024-02-15T01:44:31;1.90;99.90
35668;DHT22;22158;59.280;17.806;2024-02-15T01:46:57;1.90;99.90
35668;DHT22;22158;59.280;17.806;2024-02-15T01:49:24;1.90;99.90
35668;DHT22;22158;59.280;17.806;2024-02-15T01:51:52;1.90;99.90
35668;DHT22;22158;59.280;17.806;2024-02-15T01:54:19;2.00;99.90
35668;DHT22;22158;59.280;17.806;2024-02-15T01:56:45;1.90;99.90
35668;DHT22;22158;59.280;17.806;2024-02-15T01:59:13;1.90;99.90
35668;DHT22;22158;59.280;17.806;2024-02-15T02:01:41;1.90;99.90
35668;DHT22;22158;59.280;17.806;2024-02-15T02:04:07;1.80;99.90
35668;DHT22;22158;59.280;17.806;2024-02-15T02:06:33;1.80;99.90
35668;DHT22;22158;59.280;17.806;2024-02-15T02:08:59;1.80;99.90
35668;DHT22;22158;59.280;17.806;2024-02-15T02:11:26;1.80;99.90
35668;DHT22;22158;59.280;17.806;2024-02-15T02:13:51;1.80;99.90
35668;DHT22;22158;59.280;17.806;2024-02-15T02:16:29;1.90;99.90
35668;DHT22;22158;59.280;17.806;2024-02-15T02:18:55;1.90;99.90
35668;DHT22;22158;59.280;17.806;2024-02-15T02:21:26;1.90;99.90
35668;DHT22;22158;59.280;17.806;2024-02-15T02:23:57;1.90;99.90
35668;DHT22;22158;59.280;17.806;2024-02-15T02:26:24;2.00;99.90
35668;DHT22;22158;59.280;17.806;2024-02-15T02:28:50;2.00;99.90
35668;DHT22;22158;59.280;17.806;2024-02-15T02:31:19;2.00;99.90
35668;DHT22;22158;59.280;17.806;2024-02-15T02:33:53;2.00;99.90
35668;DHT22;22158;59.280;17.806;2024-02-15T02:36:20;2.00;99.90
35668;DHT22;22158;59.280;17.806;2024-02-15T02:38:46;2.00;99.90
35668;DHT22;22158;59.280;17.806;2024-02-15T02:41:16;2.00;99.90
35668;DHT22;22158;59.280;17.806;2024-02-15T02:43:42;2.00;99.90
35668;DHT22;22158;59.280;17.806;2024-02-15T02:46:11;2.00;99.90
35668;DHT22;22158;59.280;17.806;2024-02-15T02:48:38;2.00;99.90
35668;DHT22;22158;59.280;17.806;2024-02-15T02:51:04;2.10;99.90
35668;DHT22;22158;59.280;17.806;2024-02-15T02:53:30;2.10;99.90
35668;DHT22;22158;59.280;17.806;2024-02-15T02:55:59;2.10;99.90
35668;DHT22;22158;59.280;17.806;2024-02-15T02:58:24;2.10;99.90
35668;DHT22;22158;59.280;17.806;2024-02-15T03:00:50;2.00;99.90
35668;DHT22;22158;59.280;17.806;2024-02-15T03:03:17;2.00;99.90
35668;DHT22;22158;59.280;17.806;2024-02-15T03:05:44;2.00;99.90
35668;DHT22;22158;59.280;17.806;2024-02-15T03:08:11;2.00;99.90
35668;DHT22;22158;59.280;17.806;2024-02-15T03:10:38;2.00;99.90
35668;DHT22;22158;59.280;17.806;2024-02-15T03:13:05;2.00;99.90
35668;DHT22;22158;59.280;17.806;2024-02-15T03:15:31;1.90;99.90
35668;DHT22;22158;59.280;17.806;2024-02-15T03:17:58;1.90;99.90
35668;DHT22;22158;59.280;17.806;2024-02-15T03:20:24;1.90;99.90
35668;DHT22;22158;59.280;17.806;2024-02-15T03:22:54;1.90;99.90
35668;DHT22;22158;59.280;17.806;2024-02-15T03:25:20;1.90;99.90
35668;DHT22;22158;59.280;17.806;2024-02-15T03:27:51;1.80;99.90
35668;DHT22;22158;59.280;17.806;2024-02-15T03:30:22;1.80;99.90
35668;DHT22;22158;59.280;17.806;2024-02-15T03:32:49;1.80;99.90
35668;DHT22;22158;59.280;17.806;2024-02-15T03:35:17;1.80;99.90
35668;DHT22;22158;59.280;17.806;2024-02-15T03:37:43;1.80;99.90
35668;DHT22;22158;59.280;17.806;2024-02-15T03:40:09;1.70;99.90
35668;DHT22;22158;59.280;17.806;2024-02-15T03:42:35;1.80;99.90
35668;DHT22;22158;59.280;17.806;2024-02-15T03:45:05;1.80;99.90
35668;DHT22;22158;59.280;17.806;2024-02-15T03:47:35;1.80;99.90
35668;DHT22;22158;59.280;17.806;2024-02-15T03:50:04;1.80;99.90
35668;DHT22;22158;59.280;17.806;2024-02-15T03:52:31;1.80;99.90
35668;DHT22;22158;59.280;17.806;2024-02-15T03:54:57;1.70;99.90
35668;DHT22;22158;59.280;17.806;2024-02-15T03:57:23;1.70;99.90
35668;DHT22;22158;59.280;17.806;2024-02-15T03:59:49;1.70;99.90
35668;DHT22;22158;59.280;17.806;2024-02-15T04:02:20;1.70;99.90
35668;DHT22;22158;59.280;17.806;2024-02-15T04:04:46;1.80;99.90
35668;DHT22;22158;59.280;17.806;2024-02-15T04:07:15;1.80;99.90
35668;DHT22;22158;59.280;17.806;2024-02-15T04:09:42;1.80;99.90
35668;DHT22;22158;59.280;17.806;2024-02-15T04:12:08;1.80;99.90
35668;DHT22;22158;59.280;17.806;2024-02-15T04:14:34;1.80;99.90
35668;DHT22;22158;59.280;17.806;2024-02-15T04:17:00;1.70;99.90
35668;DHT22;22158;59.280;17.806;2024-02-15T04:19:27;1.70;99.90
35668;DHT22;22158;59.280;17.806;2024-02-15T04:21:53;1.70;99.90
35668;DHT22;22158;59.280;17.806;2024-02-15T04:24:21;1.80;99.90
35668;DHT22;22158;59.280;17.806;2024-02-15T04:26:47;1.70;99.90
35668;DHT22;22158;59.280;17.806;2024-02-15T04:29:14;1.70;99.90
35668;DHT22;22158;59.280;17.806;2024-02-15T04:31:41;1.70;99.90
35668;DHT22;22158;59.280;17.806;2024-02-15T04:34:08;1.70;99.90
35668;DHT22;22158;59.280;17.806;2024-02-15T04:36:35;1.70;99.90
35668;DHT22;22158;59.280;17.806;2024-02-15T04:39:01;1.70;99.90
35668;DHT22;22158;59.280;17.806;2024-02-15T04:41:28;1.70;99.90
35668;DHT22;22158;59.280;17.806;2024-02-15T04:43:54;1.70;99.90
35668;DHT22;22158;59.280;17.806;2024-02-15T04:46:20;1.80;99.90
35668;DHT22;22158;59.280;17.806;2024-02-15T04:48:50;1.80;99.90
35668;DHT22;22158;59.280;17.806;2024-02-15T04:51:16;1.80;99.90
35668;DHT22;22158;59.280;17.806;2024-02-15T04:53:43;1.80;99.90
35668;DHT22;22158;59.280;17.806;2024-02-15T04:56:09;1.70;99.90
35668;DHT22;22158;59.280;17.806;2024-02-15T04:58:42;1.70;99.90
35668;DHT22;22158;59.280;17.806;2024-02-15T05:01:14;1.70;99.90
35668;DHT22;22158;59.280;17.806;2024-02-15T05:03:39;1.70;99.90
35668;DHT22;22158;59.280;17.806;2024-02-15T05:06:05;1.70;99.90
35668;DHT22;22158;59.280;17.806;2024-02-15T05:08:33;1.70;99.90
35668;DHT22;22158;59.280;17.806;2024-02-15T05:11:02;1.70;99.90
35668;DHT22;22158;59.280;17.806;2024-02-15T05:13:29;1.70;99.90
35668;DHT22;22158;59.280;17.806;2024-02-15T05:15:55;1.70;99.90
35668;DHT22;22158;59.280;17.806;2024-02-15T05:18:21;1.70;99.90
35668;DHT22;22158;59.280;17.806;2024-02-15T05:20:47;1.70;99.90
35668;DHT22;22158;59.280;17.806;2024-02-15T05:23:13;1.70;99.90
35668;DHT22;22158;59.280;17.806;2024-02-15T05:25:38;1.80;99.90
35668;DHT22;22158;59.280;17.806;2024-02-15T05:28:04;1.80;99.90
35668;DHT22;22158;59.280;17.806;2024-02-15T05:30:33;1.80;99.90
35668;DHT22;22158;59.280;17.806;2024-02-15T05:32:59;1.80;99.90
35668;DHT22;22158;59.280;17.806;2024-02-15T05:35:25;1.80;99.90
35668;DHT22;22158;59.280;17.806;2024-02-15T05:37:52;1.80;99.90
35668;DHT22;22158;59.280;17.806;2024-02-15T05:40:18;1.80;99.90
35668;DHT22;22158;59.280;17.806;2024-02-15T05:42:45;1.80;99.90
35668;DHT22;22158;59.280;17.806;2024-02-15T05:47:54;1.90;99.90
35668;DHT22;22158;59.280;17.806;2024-02-15T05:50:20;1.90;99.90
35668;DHT22;22158;59.280;17.806;2024-02-15T05:52:47;1.90;99.90
35668;DHT22;22158;59.280;17.806;2024-02-15T05:55:13;1.90;99.90
35668;DHT22;22158;59.280;17.806;2024-02-15T05:57:43;1.90;99.90
35668;DHT22;22158;59.280;17.806;2024-02-15T06:00:09;2.00;99.90
35668;DHT22;22158;59.280;17.806;2024-02-15T06:02:35;1.90;99.90
35668;DHT22;22158;59.280;17.806;2024-02-15T06:05:01;2.00;99.90
35668;DHT22;22158;59.280;17.806;2024-02-15T06:07:29;2.00;99.90
35668;DHT22;22158;59.280;17.806;2024-02-15T06:09:59;2.00;99.90
35668;DHT22;22158;59.280;17.806;2024-02-15T06:12:29;2.00;99.90
35668;DHT22;22158;59.280;17.806;2024-02-15T06:14:55;2.00;99.90
35668;DHT22;22158;59.280;17.806;2024-02-15T06:17:21;2.00;99.90
35668;DHT22;22158;59.280;17.806;2024-02-15T06:19:46;2.00;99.90
35668;DHT22;22158;59.280;17.806;2024-02-15T06:22:12;2.00;99.90
35668;DHT22;22158;59.280;17.806;2024-02-15T06:24:38;2.00;99.90
35668;DHT22;22158;59.280;17.806;2024-02-15T06:27:05;2.00;99.90
35668;DHT22;22158;59.280;17.806;2024-02-15T06:29:31;2.00;99.90
35668;DHT22;22158;59.280;17.806;2024-02-15T06:32:15;2.00;99.90
35668;DHT22;22158;59.280;17.806;2024-02-15T06:34:59;2.00;99.90
35668;DHT22;22158;59.280;17.806;2024-02-15T06:37:43;2.00;99.90
35668;DHT22;22158;59.280;17.806;2024-02-15T06:40:27;2.00;99.90
35668;DHT22;22158;59.280;17.806;2024-02-15T06:42:54;2.00;99.90
35668;DHT22;22158;59.280;17.806;2024-02-15T06:45:19;2.00;99.90
35668;DHT22;22158;59.280;17.806;2024-02-15T06:47:45;1.90;99.90
35668;DHT22;22158;59.280;17.806;2024-02-15T06:50:14;1.90;99.90
35668;DHT22;22158;59.280;17.806;2024-02-15T06:52:43;1.90;99.90
35668;DHT22;22158;59.280;17.806;2024-02-15T06:55:09;1.90;99.90
35668;DHT22;22158;59.280;17.806;2024-02-15T06:57:38;1.90;99.90
35668;DHT22;22158;59.280;17.806;2024-02-15T07:00:06;2.00;99.90
35668;DHT22;22158;59.280;17.806;2024-02-15T07:02:39;2.00;99.90
35668;DHT22;22158;59.280;17.806;2024-02-15T07:05:06;2.00;99.90
35668;DHT22;22158;59.280;17.806;2024-02-15T07:07:32;2.00;99.90
35668;DHT22;22158;59.280;17.806;2024-02-15T07:09:59;2.10;99.90
35668;DHT22;22158;59.280;17.806;2024-02-15T07:12:28;2.10;99.90
35668;DHT22;22158;59.280;17.806;2024-02-15T07:14:54;2.10;99.90
35668;DHT22;22158;59.280;17.806;2024-02-15T07:17:20;2.20;99.90
35668;DHT22;22158;59.280;17.806;2024-02-15T07:19:46;2.20;99.90
35668;DHT22;22158;59.280;17.806;2024-02-15T07:22:15;2.20;99.90
35668;DHT22;22158;59.280;17.806;2024-02-15T07:24:40;2.20;99.90
35668;DHT22;22158;59.280;17.806;2024-02-15T07:27:06;2.20;99.90
35668;DHT22;22158;59.280;17.806;2024-02-15T07:29:33;2.20;99.90
35668;DHT22;22158;59.280;17.806;2024-02-15T07:32:02;2.20;99.90
35668;DHT22;22158;59.280;17.806;2024-02-15T07:34:30;2.20;99.90
35668;DHT22;22158;59.280;17.806;2024-02-15T07:36:56;2.20;99.90
35668;DHT22;22158;59.280;17.806;2024-02-15T07:39:23;2.20;99.90
35668;DHT22;22158;59.280;17.806;2024-02-15T07:41:54;2.20;99.90
35668;DHT22;22158;59.280;17.806;2024-02-15T07:44:30;2.30;99.90
35668;DHT22;22158;59.280;17.806;2024-02-15T07:46:58;2.30;99.90
35668;DHT22;22158;59.280;17.806;2024-02-15T07:49:26;2.30;99.90
35668;DHT22;22158;59.280;17.806;2024-02-15T07:51:52;2.30;99.90
35668;DHT22;22158;59.280;17.806;2024-02-15T07:54:20;2.40;99.90
35668;DHT22;22158;59.280;17.806;2024-02-15T07:56:47;2.50;99.90
35668;DHT22;22158;59.280;17.806;2024-02-15T07:59:14;2.50;99.90
35668;DHT22;22158;59.280;17.806;2024-02-15T08:01:42;2.50;99.90
35668;DHT22;22158;59.280;17.806;2024-02-15T08:04:09;2.60;99.90
35668;DHT22;22158;59.280;17.806;2024-02-15T08:06:34;2.70;99.90
35668;DHT22;22158;59.280;17.806;2024-02-15T08:09:02;2.70;99.90
35668;DHT22;22158;59.280;17.806;2024-02-15T08:11:32;2.70;99.90
35668;DHT22;22158;59.280;17.806;2024-02-15T08:13:57;2.80;99.90
35668;DHT22;22158;59.280;17.806;2024-02-15T08:16:25;2.90;99.90
35668;DHT22;22158;59.280;17.806;2024-02-15T08:18:54;3.00;99.90
35668;DHT22;22158;59.280;17.806;2024-02-15T08:21:29;2.90;99.90
35668;DHT22;22158;59.280;17.806;2024-02-15T08:24:04;2.90;99.90
35668;DHT22;22158;59.280;17.806;2024-02-15T08:26:36;2.90;99.90
35668;DHT22;22158;59.280;17.806;2024-02-15T08:29:04;2.90;99.90
35668;DHT22;22158;59.280;17.806;2024-02-15T08:31:30;2.90;99.90
35668;DHT22;22158;59.280;17.806;2024-02-15T08:34:02;2.90;99.90
35668;DHT22;22158;59.280;17.806;2024-02-15T08:36:31;2.90;99.90
35668;DHT22;22158;59.280;17.806;2024-02-15T08:38:56;3.00;99.90
35668;DHT22;22158;59.280;17.806;2024-02-15T08:41:22;3.10;99.90
35668;DHT22;22158;59.280;17.806;2024-02-15T08:43:52;3.10;99.90
35668;DHT22;22158;59.280;17.806;2024-02-15T08:46:18;3.10;99.90
35668;DHT22;22158;59.280;17.806;2024-02-15T08:48:48;3.20;99.90
35668;DHT22;22158;59.280;17.806;2024-02-15T08:51:13;3.20;99.90
35668;DHT22;22158;59.280;17.806;2024-02-15T08:53:39;3.30;99.90
35668;DHT22;22158;59.280;17.806;2024-02-15T08:56:05;3.30;99.90
35668;DHT22;22158;59.280;17.806;2024-02-15T08:58:31;3.30;99.90
35668;DHT22;22158;59.280;17.806;2024-02-15T09:00:58;3.40;99.90
35668;DHT22;22158;59.280;17.806;2024-02-15T09:03:24;3.40;99.90
35668;DHT22;22158;59.280;17.806;2024-02-15T09:05:50;3.50;99.90
35668;DHT22;22158;59.280;17.806;2024-02-15T09:08:16;3.50;99.90
35668;DHT22;22158;59.280;17.806;2024-02-15T09:10:49;3.50;99.90
35668;DHT22;22158;59.280;17.806;2024-02-15T09:13:15;3.60;99.90
35668;DHT22;22158;59.280;17.806;2024-02-15T09:15:41;3.50;99.90
35668;DHT22;22158;59.280;17.806;2024-02-15T09:18:08;3.50;99.90
35668;DHT22;22158;59.280;17.806;2024-02-15T09:20:36;3.50;99.90
35668;DHT22;22158;59.280;17.806;2024-02-15T09:23:03;3.40;99.90
35668;DHT22;22158;59.280;17.806;2024-02-15T09:25:38;3.40;99.90
35668;DHT22;22158;59.280;17.806;2024-02-15T09:28:03;3.40;99.90
35668;DHT22;22158;59.280;17.806;2024-02-15T09:30:29;3.50;99.90
35668;DHT22;22158;59.280;17.806;2024-02-15T09:32:57;3.40;99.90
35668;DHT22;22158;59.280;17.806;2024-02-15T09:35:23;3.50;99.90
35668;DHT22;22158;59.280;17.806;2024-02-15T09:37:49;3.50;99.90
35668;DHT22;22158;59.280;17.806;2024-02-15T09:40:16;3.50;99.90
35668;DHT22;22158;59.280;17.806;2024-02-15T09:42:46;3.50;99.90
35668;DHT22;22158;59.280;17.806;2024-02-15T09:45:13;3.60;99.90
35668;DHT22;22158;59.280;17.806;2024-02-15T09:47:40;3.70;99.90
35668;DHT22;22158;59.280;17.806;2024-02-15T09:50:13;3.80;99.90
35668;DHT22;22158;59.280;17.806;2024-02-15T09:52:44;3.90;99.90
35668;DHT22;22158;59.280;17.806;2024-02-15T09:55:11;4.00;99.90
35668;DHT22;22158;59.280;17.806;2024-02-15T09:57:42;4.00;99.90
35668;DHT22;22158;59.280;17.806;2024-02-15T10:00:09;4.00;99.90
35668;DHT22;22158;59.280;17.806;2024-02-15T10:02:40;3.90;99.90
35668;DHT22;22158;59.280;17.806;2024-02-15T10:05:07;3.90;99.90
35668;DHT22;22158;59.280;17.806;2024-02-15T10:07:43;3.80;99.90
35668;DHT22;22158;59.280;17.806;2024-02-15T10:10:19;3.90;99.90
35668;DHT22;22158;59.280;17.806;2024-02-15T10:12:55;4.10;99.90
35668;DHT22;22158;59.280;17.806;2024-02-15T10:15:36;4.20;99.90
35668;DHT22;22158;59.280;17.806;2024-02-15T10:18:11;4.20;99.90
35668;DHT22;22158;59.280;17.806;2024-02-15T10:20:41;4.20;99.90
35668;DHT22;22158;59.280;17.806;2024-02-15T10:23:15;4.20;99.90
35668;DHT22;22158;59.280;17.806;2024-02-15T10:25:44;4.30;99.90
35668;DHT22;22158;59.280;17.806;2024-02-15T10:28:11;4.30;99.90
35668;DHT22;22158;59.280;17.806;2024-02-15T10:30:39;4.40;99.90
35668;DHT22;22158;59.280;17.806;2024-02-15T10:33:06;4.40;99.90
35668;DHT22;22158;59.280;17.806;2024-02-15T10:35:33;4.40;99.90
35668;DHT22;22158;59.280;17.806;2024-02-15T10:38:11;4.50;99.90
35668;DHT22;22158;59.280;17.806;2024-02-15T10:40:39;4.60;99.90
35668;DHT22;22158;59.280;17.806;2024-02-15T10:43:07;4.60;99.90
35668;DHT22;22158;59.280;17.806;2024-02-15T10:45:35;4.60;99.90
35668;DHT22;22158;59.280;17.806;2024-02-15T10:48:02;4.60;99.90
35668;DHT22;22158;59.280;17.806;2024-02-15T10:50:30;4.60;99.90
35668;DHT22;22158;59.280;17.806;2024-02-15T10:52:57;4.50;99.90
35668;DHT22;22158;59.280;17.806;2024-02-15T10:55:38;4.50;99.90
35668;DHT22;22158;59.280;17.806;2024-02-15T10:58:07;4.50;99.90
35668;DHT22;22158;59.280;17.806;2024-02-15T11:00:33;4.50;99.90
35668;DHT22;22158;59.280;17.806;2024-02-15T11:03:03;4.60;99.90
35668;DHT22;22158;59.280;17.806;2024-02-15T11:05:35;4.70;99.90
35668;DHT22;22158;59.280;17.806;2024-02-15T11:08:05;4.60;99.90
35668;DHT22;22158;59.280;17.806;2024-02-15T11:10:32;4.60;99.90
35668;DHT22;22158;59.280;17.806;2024-02-15T11:12:59;4.60;99.90
35668;DHT22;22158;59.280;17.806;2024-02-15T11:15:45;4.60;99.90
35668;DHT22;22158;59.280;17.806;2024-02-15T11:18:12;4.60;99.90
35668;DHT22;22158;59.280;17.806;2024-02-15T11:20:45;4.60;99.90
35668;DHT22;22158;59.280;17.806;2024-02-15T11:23:11;4.60;99.90
35668;DHT22;22158;59.280;17.806;2024-02-15T11:25:38;4.50;99.90
35668;DHT22;22158;59.280;17.806;2024-02-15T11:30:51;4.40;99.90
35668;DHT22;22158;59.280;17.806;2024-02-15T11:33:32;4.30;99.90
35668;DHT22;22158;59.280;17.806;2024-02-15T11:36:13;4.20;99.90
35668;DHT22;22158;59.280;17.806;2024-02-15T11:38:39;4.10;99.90
35668;DHT22;22158;59.280;17.806;2024-02-15T11:41:11;4.10;99.90
35668;DHT22;22158;59.280;17.806;2024-02-15T11:46:18;4.00;99.90
35668;DHT22;22158;59.280;17.806;2024-02-15T11:48:48;4.00;99.90
35668;DHT22;22158;59.280;17.806;2024-02-15T11:51:36;4.00;99.90
35668;DHT22;22158;59.280;17.806;2024-02-15T11:54:13;4.00;99.90
35668;DHT22;22158;59.280;17.806;2024-02-15T11:59:13;3.90;99.90
35668;DHT22;22158;59.280;17.806;2024-02-15T12:01:58;3.90;99.90
35668;DHT22;22158;59.280;17.806;2024-02-15T12:04:43;3.80;99.90
35668;DHT22;22158;59.280;17.806;2024-02-15T12:07:32;3.80;99.90
35668;DHT22;22158;59.280;17.806;2024-02-15T12:10:20;3.80;99.90
35668;DHT22;22158;59.280;17.806;2024-02-15T12:13:04;3.80;99.90
35668;DHT22;22158;59.280;17.806;2024-02-15T12:15:57;3.90;99.90
35668;DHT22;22158;59.280;17.806;2024-02-15T12:18:44;3.90;99.90
35668;DHT22;22158;59.280;17.806;2024-02-15T12:21:14;3.90;99.90
35668;DHT22;22158;59.280;17.806;2024-02-15T12:23:42;3.90;99.90
35668;DHT22;22158;59.280;17.806;2024-02-15T12:26:07;3.80;99.90
35668;DHT22;22158;59.280;17.806;2024-02-15T12:28:33;3.70;99.90
35668;DHT22;22158;59.280;17.806;2024-02-15T12:31:03;3.70;99.90
35668;DHT22;22158;59.280;17.806;2024-02-15T12:33:32;3.60;99.90
35668;DHT22;22158;59.280;17.806;2024-02-15T12:36:05;3.50;99.90
35668;DHT22;22158;59.280;17.806;2024-02-15T12:38:31;3.50;99.90
35668;DHT22;22158;59.280;17.806;2024-02-15T12:40:57;3.50;99.90
35668;DHT22;22158;59.280;17.806;2024-02-15T12:43:22;3.50;99.90
35668;DHT22;22158;59.280;17.806;2024-02-15T12:45:48;3.40;99.90
35668;DHT22;22158;59.280;17.806;2024-02-15T12:48:14;3.40;99.90
35668;DHT22;22158;59.280;17.806;2024-02-15T12:50:41;3.20;99.90
35668;DHT22;22158;59.280;17.806;2024-02-15T12:53:06;3.10;99.90
35668;DHT22;22158;59.280;17.806;2024-02-15T12:55:36;3.10;99.90
35668;DHT22;22158;59.280;17.806;2024-02-15T12:58:04;3.10;99.90
35668;DHT22;22158;59.280;17.806;2024-02-15T13:00:34;3.10;99.90
35668;DHT22;22158;59.280;17.806;2024-02-15T13:03:05;3.10;99.90
35668;DHT22;22158;59.280;17.806;2024-02-15T13:05:34;3.20;99.90
35668;DHT22;22158;59.280;17.806;2024-02-15T13:08:02;3.30;99.90
35668;DHT22;22158;59.280;17.806;2024-02-15T13:10:29;3.30;99.90
35668;DHT22;22158;59.280;17.806;2024-02-15T13:12:55;3.40;99.90
35668;DHT22;22158;59.280;17.806;2024-02-15T13:15:22;3.30;99.90
35668;DHT22;22158;59.280;17.806;2024-02-15T13:17:53;3.30;99.90
35668;DHT22;22158;59.280;17.806;2024-02-15T13:20:23;3.40;99.90
35668;DHT22;22158;59.280;17.806;2024-02-15T13:23:05;3.40;99.90
35668;DHT22;22158;59.280;17.806;2024-02-15T13:25:38;3.40;99.90
35668;DHT22;22158;59.280;17.806;2024-02-15T13:28:05;3.30;99.90
35668;DHT22;22158;59.280;17.806;2024-02-15T13:30:32;3.30;99.90
35668;DHT22;22158;59.280;17.806;2024-02-15T13:32:57;3.30;99.90
35668;DHT22;22158;59.280;17.806;2024-02-15T13:35:23;3.30;99.90
35668;DHT22;22158;59.280;17.806;2024-02-15T13:37:50;3.20;99.90
35668;DHT22;22158;59.280;17.806;2024-02-15T13:40:25;3.20;99.90
35668;DHT22;22158;59.280;17.806;2024-02-15T13:42:55;3.20;99.90
35668;DHT22;22158;59.280;17.806;2024-02-15T13:45:30;3.20;99.90
35668;DHT22;22158;59.280;17.806;2024-02-15T13:47:58;3.20;99.90
35668;DHT22;22158;59.280;17.806;2024-02-15T13:50:27;3.10;99.90
35668;DHT22;22158;59.280;17.806;2024-02-15T13:52:53;3.10;99.90
35668;DHT22;22158;59.280;17.806;2024-02-15T13:55:19;3.10;99.90
35668;DHT22;22158;59.280;17.806;2024-02-15T13:57:48;3.10;99.90
35668;DHT22;22158;59.280;17.806;2024-02-15T14:00:15;3.20;99.90
35668;DHT22;22158;59.280;17.806;2024-02-15T14:05:14;3.10;99.90
35668;DHT22;22158;59.280;17.806;2024-02-15T14:07:39;3.10;99.90
35668;DHT22;22158;59.280;17.806;2024-02-15T14:10:06;3.10;99.90
35668;DHT22;22158;59.280;17.806;2024-02-15T14:12:33;3.00;99.90
35668;DHT22;22158;59.280;17.806;2024-02-15T14:15:00;3.00;99.90
35668;DHT22;22158;59.280;17.806;2024-02-15T14:17:25;3.00;99.90
35668;DHT22;22158;59.280;17.806;2024-02-15T14:19:51;3.00;99.90
35668;DHT22;22158;59.280;17.806;2024-02-15T14:22:17;2.90;99.90
35668;DHT22;22158;59.280;17.806;2024-02-15T14:24:43;2.90;99.90
35668;DHT22;22158;59.280;17.806;2024-02-15T14:27:10;2.90;99.90
35668;DHT22;22158;59.280;17.806;2024-02-15T14:29:39;2.90;99.90
35668;DHT22;22158;59.280;17.806;2024-02-15T14:32:25;2.90;99.90
35668;DHT22;22158;59.280;17.806;2024-02-15T14:35:09;2.90;99.90
35668;DHT22;22158;59.280;17.806;2024-02-15T14:37:34;2.90;99.90
35668;DHT22;22158;59.280;17.806;2024-02-15T14:40:00;2.90;99.90
35668;DHT22;22158;59.280;17.806;2024-02-15T14:42:26;2.90;99.90
35668;DHT22;22158;59.280;17.806;2024-02-15T14:44:51;3.00;99.90
35668;DHT22;22158;59.280;17.806;2024-02-15T14:47:17;2.90;99.90
35668;DHT22;22158;59.280;17.806;2024-02-15T14:49:43;2.90;99.90
35668;DHT22;22158;59.280;17.806;2024-02-15T14:52:09;2.90;99.90
35668;DHT22;22158;59.280;17.806;2024-02-15T14:54:35;2.90;99.90
35668;DHT22;22158;59.280;17.806;2024-02-15T14:57:01;2.90;99.90
35668;DHT22;22158;59.280;17.806;2024-02-15T14:59:27;2.80;99.90
35668;DHT22;22158;59.280;17.806;2024-02-15T15:01:53;2.90;99.90
35668;DHT22;22158;59.280;17.806;2024-02-15T15:04:18;2.90;99.90
35668;DHT22;22158;59.280;17.806;2024-02-15T15:06:44;2.80;99.90
35668;DHT22;22158;59.280;17.806;2024-02-15T15:09:29;2.90;99.90
35668;DHT22;22158;59.280;17.806;2024-02-15T15:12:13;2.80;99.90
35668;DHT22;22158;59.280;17.806;2024-02-15T15:14:57;2.80;99.90
35668;DHT22;22158;59.280;17.806;2024-02-15T15:17:23;2.80;99.90
35668;DHT22;22158;59.280;17.806;2024-02-15T15:19:51;2.80;99.90
35668;DHT22;22158;59.280;17.806;2024-02-15T15:22:16;2.80;99.90
35668;DHT22;22158;59.280;17.806;2024-02-15T15:24:45;2.80;99.90
35668;DHT22;22158;59.280;17.806;2024-02-15T15:27:12;2.80;99.90
35668;DHT22;22158;59.280;17.806;2024-02-15T15:29:38;2.80;99.90
35668;DHT22;22158;59.280;17.806;2024-02-15T15:32:04;2.70;99.90
35668;DHT22;22158;59.280;17.806;2024-02-15T15:34:30;2.70;99.90
35668;DHT22;22158;59.280;17.806;2024-02-15T15:36:55;2.70;99.90
35668;DHT22;22158;59.280;17.806;2024-02-15T15:39:22;2.60;99.90
35668;DHT22;22158;59.280;17.806;2024-02-15T15:41:50;2.60;99.90
35668;DHT22;22158;59.280;17.806;2024-02-15T15:44:19;2.50;99.90
35668;DHT22;22158;59.280;17.806;2024-02-15T15:46:45;2.50;99.90
35668;DHT22;22158;59.280;17.806;2024-02-15T15:49:11;2.50;99.90
35668;DHT22;22158;59.280;17.806;2024-02-15T15:51:41;2.40;99.90